This is the latest recevied weather packets stored in our database for station/object OK2VOP-6. If no packets are shown the sender has not sent any weather packets the latest 10 day(s).
| Time | Temp. | Humidity | Pressure | Rain* | Wind** | Luminosity | Snow |
|---|---|---|---|---|---|---|---|
| 1788302364 | 15.56° C | 47% | - | 0 mm | - | - | - |
| 1788301159 | 15.56° C | 46% | - | 0 mm | - | - | - |
| 1788299956 | 16.67° C | 44% | - | 0 mm | - | - | - |
| 1788298757 | 17.22° C | 43% | - | 0 mm | - | - | - |
| 1788297543 | 16.67° C | 43% | - | 0 mm | - | - | - |
| 1788296339 | 16.11° C | 45% | - | 0 mm | - | - | - |
| 1788295134 | 16.11° C | 45% | - | 0 mm | - | - | - |
| 1788293929 | 16.67° C | 44% | - | 0 mm | - | - | - |
| 1788292724 | 16.67° C | 42% | - | 0 mm | - | - | - |
| 1788291540 | 17.78° C | 38% | - | 0 mm | - | - | - |
| 1788290314 | 19.44° C | 32% | - | 0 mm | - | - | - |
| 1788289109 | 20° C | 29% | - | 0 mm | - | - | - |
| 1788287905 | 20.56° C | 27% | - | 0 mm | - | - | - |
| 1788286700 | 21.11° C | 26% | - | 0 mm | - | - | - |
| 1788285495 | 21.11° C | 25% | - | 0 mm | - | - | - |
| 1788284290 | 21.11° C | 26% | - | 0 mm | - | - | - |
| 1788283085 | 22.22° C | 22% | - | 0 mm | - | - | - |
| 1788281881 | 23.33° C | 18% | - | 0 mm | - | - | - |
| 1788280676 | 23.89° C | 16% | - | 0 mm | - | - | - |
| 1788279471 | 25.56° C | 9% | - | 0 mm | - | - | - |
| 1788278266 | 26.67° C | 8% | - | 0 mm | - | - | - |
| 1788277062 | 26.67° C | 8% | - | 0 mm | - | - | - |
| 1788275857 | 25.56° C | 9% | - | 0 mm | - | - | - |
| 1788274652 | 25.56° C | 9% | - | 0 mm | - | - | - |
| 1788273447 | 26.67° C | 8% | - | 0 mm | - | - | - |
* Rain latest hour (hover to see other rain measurements)
** Current wind speed in m/s (hover to see current wind gust speed)